Strona główna
METAR-TAF:

METAR-TAF

Lotnisko :

La Seu d’Urgell, Hiszpania

Szerokość geograficzna: 42-20-29N, Długość geograficzna: 001-24-17E, wysokość: 802 m

Aktualna obserwacja pogody

Raport powstał 36 minut temu, godzina 11:00 UTC
Wiatr 4 kt od południowo-południowy wschód
Temperatura 27°C
Wilgotność 89%
Ciśnienie 1016 hPa
Widzialność 10 km lub więcej
Mało chmury na wysokości 5500 ft

METAR: LESU 181100Z 16004KT 9999 FEW055 27/25 Q1016 NOSIG

czas: 13:36 (11:36 UTC)

Prognoza

Raport powstał 3 godziny i 36 minut temu, godzina 08:00 UTC
Prognoza ważna od 18 godzina 09 UTC do 19 godzina 09 UTC
Wiatr 4 kt z kierunków zmiennych
Widzialność 10 km lub więcej
Mało chmury na wysokości 6000 ft
Stopniowe zmiany
od 18 godzina 10 UTC do 18 godzina 12 UTC
Wiatr 10 kt od południe
Stopniowe zmiany
od 18 godzina 17 UTC do 18 godzina 19 UTC
Wiatr 4 kt z kierunków zmiennych

TAF: LESU 180800Z 1809/1909 VRB04KT 9999 FEW060 TX28/1815Z TN11/1905Z BECMG 1810/1812 19010KT BECMG 1817/1819 VRB04KT

Obserwacja i prognoza pogody dla ponad 4000 lotnisk (raport METAR i TAF).

Dostępne stacje oznaczono żółtymi i czerwonymi punktami na mapie.

Najedź kursorem aby zobaczyć nazwę stacji.

Kliknij aby zobaczyć obserwacje i prognozy pogody.

Aby zmienić mapę: kliknij na zielony przycisk z czarnym krzyżykiem, aby powiększyć; na zielony przycisk z myślnikiem, aby pomniejszyć; na zielone strzałki, aby przejść do map sąsiednich.


METAR-TAF: